Melshorn — LLAG — position and weather

sailwx.info

Track history (hours):
 
Tides and Currents Weather Stations Pressure Air Temp Water Temp Dewpoint Dewpoint Depression Visibility Wind Speed Wind Dir Waves Ship Positions

Melshorn

Last reported at 2018-May-24 13:59 UTC. Time now 2018-May-24 14:08 UTC.
Position N 68°14' E 016°14'.

Length 112 m; draft 3.5 m.

Type: Ship. MMSI: 259649000.

Date/timePositionNaut miles runAvg speedWind from/ knotsBaromVisibWave heightAir tempDewpointWater temp
2018-May-24 13:59N 68°14' E 016°14'4 7.3
2018-May-24 13:30N 68°14' E 016°05'4 0.8
2018-May-24 09:00N 68°14' E 016°14'4 7.4
2018-May-24 08:30N 68°14' E 016°05'3 5.7
2018-May-24 07:59N 68°14' E 016°12'0 0.4
2018-May-24 07:29N 68°14' E 016°11'3 5.3
2018-May-24 06:59N 68°14' E 016°05'3 6.9
2018-May-24 06:30N 68°14' E 016°14'4 7.2
2018-May-24 06:00N 68°14' E 016°05'4 7.3
2018-May-24 05:30N 68°14' E 016°14'2 4.9
2018-May-24 05:00N 68°14' E 016°08'0 0.9
2018-May-24 04:30N 68°14' E 016°07'3 5.6
2018-May-24 03:59N 68°14' E 016°14'4 7.5
2018-May-24 03:30N 68°14' E 016°05'4 7.2
2018-May-24 03:00N 68°14' E 016°14'0 0.0
2018-May-24 02:29N 68°14' E 016°14'4 7.3
2018-May-24 02:00N 68°14' E 016°05'0 0.0
2018-May-24 01:29N 68°14' E 016°05'0 0.0
2018-May-24 01:00N 68°14' E 016°05'0 0.0
2018-May-24 00:30N 68°14' E 016°05'0 0.0
2018-May-24 00:00N 68°14' E 016°05'0 0.0
2018-May-23 23:30N 68°14' E 016°05'4 7.0
2018-May-23 22:59N 68°14' E 016°14'2 3.5
2018-May-23 22:30N 68°14' E 016°09'1 1.8
2018-May-23 21:58N 68°14' E 016°07'3 5.9
2018-May-23 21:30N 68°14' E 016°14'1 3.0
2018-May-23 21:01N 68°14' E 016°10'2 4.4
2018-May-23 20:30N 68°14' E 016°05'4 6.9
2018-May-23 20:00N 68°14' E 016°14'2 3.2
2018-May-23 19:30N 68°14' E 016°10'0 0.5
2018-May-23 19:00N 68°14' E 016°09'2 3.5
2018-May-23 18:29N 68°14' E 016°14'2 4.7
2018-May-23 18:00N 68°14' E 016°08'0 0.1
2018-May-23 17:30N 68°14' E 016°08'2 4.6
2018-May-23 17:00N 68°14' E 016°14'4 7.1
2018-May-23 16:30N 68°14' E 016°05'2 3.8
2018-May-23 16:00N 68°14' E 016°09'2 3.4
2018-May-23 15:29N 68°14' E 016°14'4 6.9
2018-May-23 14:58N 68°14' E 016°05'2 4.0
2018-May-23 14:30N 68°14' E 016°10'2 3.5
2018-May-23 14:00N 68°14' E 016°14'4 7.2
2018-May-23 13:30N 68°14' E 016°05'3 5.8
2018-May-23 13:00N 68°14' E 016°12'1 1.7
2018-May-23 12:30N 68°14' E 016°14'4 7.1
2018-May-23 11:58N 68°14' E 016°05'2 4.4
2018-May-23 11:30N 68°14' E 016°10'2 3.3
2018-May-23 11:00N 68°14' E 016°14'0 0.0
2018-May-23 10:30N 68°14' E 016°14'2 3.1
2018-May-23 10:00N 68°14' E 016°10'1 2.0
2018-May-23 09:30N 68°14' E 016°07'3 4.9
2018-May-23 08:59N 68°14' E 016°14'4 7.6
2018-May-23 08:30N 68°14' E 016°05'3 5.7
2018-May-23 08:01N 68°14' E 016°12'0 0.7
2018-May-23 07:30N 68°15' E 016°13'3 5.7
2018-May-23 07:00N 68°14' E 016°05'3 6.6
2018-May-23 06:30N 68°14' E 016°14'4 7.2
2018-May-23 06:00N 68°14' E 016°05'4 7.4
2018-May-23 05:30N 68°14' E 016°14'2 4.4
2018-May-23 05:00N 68°14' E 016°08'0 0.4
2018-May-23 04:30N 68°14' E 016°08'2 3.1
2018-May-23 04:00N 68°14' E 016°12'3 5.9
2018-May-23 03:30N 68°14' E 016°05'4 7.0
2018-May-23 03:00N 68°14' E 016°14'0 0.0
2018-May-23 02:30N 68°14' E 016°14'4 7.1
2018-May-23 02:00N 68°14' E 016°05'0 0.0
2018-May-23 01:30N 68°14' E 016°05'0 0.0
2018-May-23 01:00N 68°14' E 016°05'0 0.0
2018-May-23 00:31N 68°14' E 016°05'0 0.0
2018-May-23 00:00N 68°14' E 016°05'0 0.0
2018-May-22 23:30N 68°14' E 016°05'4 6.7
2018-May-22 22:59N 68°14' E 016°14'1 3.0
2018-May-22 22:30N 68°14' E 016°10'2 3.1
2018-May-22 22:00N 68°14' E 016°06'3 5.8
2018-May-22 21:30N 68°14' E 016°14'1 3.0
2018-May-22 21:00N 68°14' E 016°10'2 4.4
2018-May-22 20:30N 68°14' E 016°05'4 7.1
2018-May-22 20:00N 68°14' E 016°14'2 3.2
2018-May-22 19:30N 68°14' E 016°10'0 0.8
2018-May-22 18:59N 68°14' E 016°09'2 4.2
2018-May-22 18:30N 68°14' E 016°14'2 4.0
2018-May-22 18:00N 68°14' E 016°09'0 0.7
2018-May-22 17:30N 68°14' E 016°08'2 4.7
2018-May-22 17:01N 68°14' E 016°14'4 7.0
2018-May-22 16:30N 68°14' E 016°05'2 4.1
2018-May-22 16:00N 68°14' E 016°10'2 3.2
2018-May-22 15:30N 68°14' E 016°14'4 7.2
2018-May-22 15:00N 68°14' E 016°05'2 4.0
2018-May-22 14:30N 68°14' E 016°10'2 3.3
2018-May-22 13:59N 68°14' E 016°14'4 7.5
2018-May-22 13:30N 68°14' E 016°05'3 5.8
2018-May-22 13:00N 68°14' E 016°12'0 0.8
2018-May-22 12:30N 68°15' E 016°13'3 6.8
2018-May-22 12:00N 68°14' E 016°05'2 3.6
2018-May-22 11:29N 68°14' E 016°09'2 3.5
2018-May-22 10:59N 68°14' E 016°14'0 0.0
2018-May-22 10:29N 68°14' E 016°14'3 5.7
2018-May-22 10:00N 68°14' E 016°07'0 1.0
2018-May-22 09:30N 68°14' E 016°08'2 4.9
2018-May-22 09:00N 68°14' E 016°14'4 7.5
2018-May-22 08:30N 68°14' E 016°05'3 5.5
2018-May-22 08:00N 68°14' E 016°12'1 1.0
2018-May-22 07:30N 68°15' E 016°13'3 5.9
2018-May-22 07:00N 68°14' E 016°05'3 6.7
2018-May-22 06:30N 68°14' E 016°14'4 7.0
2018-May-22 06:00N 68°14' E 016°05'4 7.3
2018-May-22 05:30N 68°14' E 016°14'2 4.4
2018-May-22 05:00N 68°14' E 016°08'0 0.9
2018-May-22 04:30N 68°14' E 016°07'3 5.2
2018-May-22 04:00N 68°14' E 016°14'4 7.2
2018-May-22 03:29N 68°14' E 016°05'4 7.4
2018-May-22 03:00N 68°14' E 016°14'0 0.0
2018-May-22 02:31N 68°14' E 016°14'4 6.9
2018-May-22 02:00N 68°14' E 016°05'0 0.0
2018-May-22 01:30N 68°14' E 016°05'0 0.0
2018-May-22 01:00N 68°14' E 016°05'0 0.0
2018-May-22 00:31N 68°14' E 016°05'0 0.0
2018-May-22 00:00N 68°14' E 016°05'0 0.4
2018-May-21 23:30N 68°14' E 016°05'3 6.8
2018-May-21 23:00N 68°14' E 016°14'2 3.3
2018-May-21 22:30N 68°14' E 016°10'1 2.2
2018-May-21 22:00N 68°14' E 016°07'3 5.4
2018-May-21 21:30N 68°14' E 016°14'2 3.5
2018-May-21 21:00N 68°14' E 016°10'2 3.8
2018-May-21 20:30N 68°14' E 016°05'4 7.1
2018-May-21 20:00N 68°14' E 016°14'3 5.2
2018-May-21 19:30N 68°14' E 016°07'0 0.7
2018-May-21 19:00N 68°14' E 016°08'2 4.3
2018-May-21 18:30N 68°14' E 016°14'2 4.5
2018-May-21 18:00N 68°14' E 016°08'0 0.7
2018-May-21 17:30N 68°14' E 016°09'2 3.9
2018-May-21 16:59N 68°14' E 016°14'4 7.6
2018-May-21 16:31N 68°14' E 016°05'2 3.4
2018-May-21 16:00N 68°14' E 016°09'2 3.9
2018-May-21 15:30N 68°14' E 016°14'4 6.7
2018-May-21 14:58N 68°14' E 016°05'2 4.0
2018-May-21 14:31N 68°14' E 016°09'2 3.6
2018-May-21 14:00N 68°14' E 016°14'4 7.2
2018-May-21 13:30N 68°14' E 016°05'3 5.2
2018-May-21 13:01N 68°14' E 016°11'1 2.3
2018-May-21 12:30N 68°14' E 016°14'4 7.2
2018-May-21 12:00N 68°14' E 016°05'3 6.3
2018-May-21 11:30N 68°14' E 016°13'2 3.9
2018-May-21 11:00N 68°14' E 016°08'2 3.4
2018-May-21 10:30N 68°14' E 016°12'1 2.6
2018-May-21 10:00N 68°14' E 016°09'1 1.0
2018-May-21 09:30N 68°14' E 016°07'2 5.1
2018-May-21 09:01N 68°14' E 016°14'4 6.7
2018-May-21 08:29N 68°14' E 016°05'3 5.8
2018-May-21 07:59N 68°14' E 016°12'0 0.4
2018-May-21 07:28N 68°14' E 016°12'2 4.5
2018-May-21 06:59N 68°14' E 016°06'3 6.5
2018-May-21 06:30N 68°14' E 016°14'4 7.0
2018-May-21 06:00N 68°14' E 016°05'4 7.1
2018-May-21 05:30N 68°14' E 016°14'2 4.1
2018-May-21 05:00N 68°14' E 016°08'0 0.5
2018-May-21 04:29N 68°14' E 016°09'2 3.2
2018-May-21 03:59N 68°14' E 016°13'3 6.7
2018-May-21 03:30N 68°14' E 016°05'4 7.1
2018-May-21 03:00N 68°14' E 016°14'0 0.0
2018-May-21 02:30N 68°14' E 016°14'4 6.9
2018-May-21 01:59N 68°14' E 016°05'0 0.0
2018-May-21 01:30N 68°14' E 016°05'0 0.0
2018-May-21 01:00N 68°14' E 016°05'0 0.0
2018-May-21 00:30N 68°14' E 016°05'0 0.0
2018-May-21 00:00N 68°14' E 016°05'0 0.0
2018-May-20 23:29N 68°14' E 016°05'4 7.5
2018-May-20 23:00N 68°14' E 016°14'2 3.1
2018-May-20 22:30N 68°14' E 016°10'2 3.2
2018-May-20 22:00N 68°14' E 016°06'3 6.1
2018-May-20 21:30N 68°14' E 016°14'1 2.8
2018-May-20 21:00N 68°14' E 016°11'2 4.7
2018-May-20 20:30N 68°14' E 016°05'4 7.1
2018-May-20 20:00N 68°14' E 016°14'2 3.4
2018-May-20 19:30N 68°14' E 016°10'1 1.3
2018-May-20 19:00N 68°14' E 016°08'2 4.6
2018-May-20 18:30N 68°14' E 016°14'1 2.8
2018-May-20 18:00N 68°14' E 016°11'1 2.1
2018-May-20 17:30N 68°14' E 016°08'2 4.8
2018-May-20 17:00N 68°14' E 016°14'4 7.0
2018-May-20 16:30N 68°14' E 016°05'2 3.6
2018-May-20 16:00N 68°14' E 016°09'2 3.8
2018-May-20 15:30N 68°14' E 016°14'4 6.9
2018-May-20 14:59N 68°14' E 016°05'2 3.6
2018-May-20 14:30N 68°14' E 016°09'2 3.7
2018-May-20 14:00N 68°14' E 016°14'4 7.2
2018-May-20 13:30N 68°14' E 016°05'3 5.4
2018-May-20 12:59N 68°14' E 016°12'1 1.7
2018-May-20 12:29N 68°14' E 016°14'4 7.2
2018-May-20 12:00N 68°14' E 016°05'2 3.9
2018-May-20 11:30N 68°14' E 016°10'2 3.4
2018-May-20 11:00N 68°14' E 016°14'0 0.0
2018-May-20 10:30N 68°14' E 016°14'2 3.8
2018-May-20 10:01N 68°14' E 016°09'1 1.1
2018-May-20 09:30N 68°14' E 016°08'2 4.8
2018-May-20 09:00N 68°14' E 016°14'4 7.1
2018-May-20 08:30N 68°14' E 016°05'3 5.4
2018-May-20 08:00N 68°14' E 016°12'0 0.6
2018-May-20 07:30N 68°15' E 016°12'3 5.3
2018-May-20 07:00N 68°14' E 016°05'3 6.8
2018-May-20 06:31N 68°14' E 016°14'4 7.0
2018-May-20 06:00N 68°14' E 016°05'3 7.0
2018-May-20 05:30N 68°14' E 016°14'2 4.2
2018-May-20 04:59N 68°14' E 016°08'0 0.4
2018-May-20 04:30N 68°14' E 016°08'2 4.3
2018-May-20 04:00N 68°14' E 016°14'4 7.5
2018-May-20 03:30N 68°14' E 016°05'4 6.8
2018-May-20 02:59N 68°14' E 016°14'0 0.0
2018-May-20 02:30N 68°14' E 016°14'4 7.0
2018-May-20 02:00N 68°14' E 016°05'0 0.0
2018-May-20 01:30N 68°14' E 016°05'0 0.0
2018-May-20 01:00N 68°14' E 016°05'0 0.0
2018-May-20 00:30N 68°14' E 016°05'0 0.0
2018-May-20 00:00N 68°14' E 016°05'0 0.0
2018-May-19 23:30N 68°14' E 016°05'4 7.2
2018-May-19 23:00N 68°14' E 016°14'2 3.2
2018-May-19 22:30N 68°14' E 016°10'2 3.5
2018-May-19 22:00N 68°14' E 016°05'3 6.6
2018-May-19 21:30N 68°14' E 016°14'1 2.6
2018-May-19 21:00N 68°14' E 016°11'2 4.8
2018-May-19 20:30N 68°14' E 016°05'4 7.0
2018-May-19 20:00N 68°14' E 016°14'1 2.8
2018-May-19 19:30N 68°14' E 016°10'1 2.3
2018-May-19 18:59N 68°14' E 016°07'3 5.1
2018-May-19 18:30N 68°14' E 016°14'2 4.5
2018-May-19 18:00N 68°14' E 016°08'0 0.3
2018-May-19 17:30N 68°14' E 016°08'2 4.7
2018-May-19 17:00N 68°14' E 016°14'4 6.9
2018-May-19 16:29N 68°14' E 016°05'2 3.7
2018-May-19 16:01N 68°14' E 016°09'2 3.7
2018-May-19 15:30N 68°14' E 016°14'4 7.1
2018-May-19 15:00N 68°14' E 016°05'2 4.5
2018-May-19 14:30N 68°14' E 016°10'1 2.8
2018-May-19 14:00N 68°14' E 016°14'4 7.0
2018-May-19 13:30N 68°14' E 016°05'3 5.5
2018-May-19 13:00N 68°14' E 016°12'1 2.1
2018-May-19 12:30N 68°14' E 016°14'4 7.3
2018-May-19 12:00N 68°14' E 016°05'2 3.7
2018-May-19 11:30N 68°14' E 016°09'2 3.6
2018-May-19 11:00N 68°14' E 016°14'0 0.0
2018-May-19 10:30N 68°14' E 016°14'2 3.6
2018-May-19 10:00N 68°14' E 016°09'1 1.2
2018-May-19 09:30N 68°14' E 016°08'2 4.7
2018-May-19 09:00N 68°14' E 016°14'4 7.3
2018-May-19 08:30N 68°14' E 016°05'3 5.4
2018-May-19 08:00N 68°14' E 016°12'0 0.6
2018-May-19 07:30N 68°15' E 016°12'3 5.2
2018-May-19 07:00N 68°14' E 016°06'3 6.4
2018-May-19 06:30N 68°14' E 016°14'4 7.2
2018-May-19 06:00N 68°14' E 016°05'3 6.9
2018-May-19 05:30N 68°14' E 016°14'2 4.0
2018-May-19 05:00N 68°14' E 016°08'0 0.4
2018-May-19 04:30N 68°14' E 016°08'2 4.3
2018-May-19 04:00N 68°14' E 016°13'3 6.7
2018-May-19 03:30N 68°14' E 016°05'4 7.1
2018-May-19 03:00N 68°14' E 016°14'0 0.0
2018-May-19 02:30N 68°14' E 016°14'4 7.3
2018-May-19 02:00N 68°14' E 016°05'0 0.0
2018-May-19 01:30N 68°14' E 016°05'0 0.0
2018-May-19 00:59N 68°14' E 016°05'0 0.0
2018-May-19 00:30N 68°14' E 016°05'0 0.0
2018-May-19 00:00N 68°14' E 016°05'0 0.0
2018-May-18 23:30N 68°14' E 016°05'4 7.0
2018-May-18 22:59N 68°14' E 016°14'2 3.3
2018-May-18 22:30N 68°14' E 016°10'2 3.8
2018-May-18 22:01N 68°14' E 016°05'3 6.8
2018-May-18 21:31N 68°14' E 016°14'1 2.6
2018-May-18 21:00N 68°14' E 016°11'2 4.5
2018-May-18 20:30N 68°14' E 016°05'4 7.1
2018-May-18 20:00N 68°14' E 016°14'1 2.9
2018-May-18 19:31N 68°14' E 016°10'1 1.8
2018-May-18 19:00N 68°14' E 016°08'2 4.6
2018-May-18 18:30N 68°14' E 016°14'2 3.0
2018-May-18 18:00N 68°14' E 016°10'1 1.8
2018-May-18 17:30N 68°14' E 016°08'2 4.8
2018-May-18 17:00N 68°14' E 016°14'4 7.0
2018-May-18 16:30N 68°14' E 016°05'2 3.9
2018-May-18 16:00N 68°14' E 016°10'2 3.5
2018-May-18 15:30N 68°14' E 016°14'4 7.2
2018-May-18 15:01N 68°14' E 016°05'2 4.0
2018-May-18 14:30N 68°14' E 016°10'2 3.3
2018-May-18 14:01N 68°14' E 016°14'4 6.9
2018-May-18 13:30N 68°14' E 016°05'3 5.6
2018-May-18 13:00N 68°14' E 016°12'1 2.1
2018-May-18 12:30N 68°14' E 016°14'4 7.3
2018-May-18 12:00N 68°14' E 016°05'2 3.6
2018-May-18 11:30N 68°14' E 016°09'2 3.6
2018-May-18 10:59N 68°14' E 016°14'0 0.0
2018-May-18 10:30N 68°14' E 016°14'2 4.1
2018-May-18 10:00N 68°14' E 016°09'1 1.2
2018-May-18 09:30N 68°14' E 016°07'3 5.1
2018-May-18 09:00N 68°14' E 016°14'4 7.2
2018-May-18 08:30N 68°14' E 016°05'3 5.6
2018-May-18 07:59N 68°14' E 016°12'0 0.4
2018-May-18 07:30N 68°14' E 016°11'2 5.0
2018-May-18 07:00N 68°14' E 016°05'3 6.5
2018-May-18 06:29N 68°14' E 016°14'4 7.1
2018-May-18 05:59N 68°14' E 016°05'4 7.3
2018-May-18 05:29N 68°14' E 016°14'2 4.0
2018-May-18 05:01N 68°14' E 016°09'0 0.4
2018-May-18 04:30N 68°14' E 016°08'2 4.5
2018-May-18 04:00N 68°14' E 016°14'4 7.4
2018-May-18 03:30N 68°14' E 016°05'4 6.7
2018-May-18 02:58N 68°14' E 016°14'0 0.0
2018-May-18 02:30N 68°14' E 016°14'4 7.2
2018-May-18 02:00N 68°14' E 016°05'0 0.0
2018-May-18 01:30N 68°14' E 016°05'0 0.0
2018-May-18 01:00N 68°14' E 016°05'0 0.0
2018-May-18 00:31N 68°14' E 016°05'0 0.0
2018-May-18 00:00N 68°14' E 016°05'0 0.0
2018-May-17 23:29N 68°14' E 016°05'4 7.3
2018-May-17 23:00N 68°14' E 016°14'2 3.6
2018-May-17 22:28N 68°14' E 016°09'1 2.6
2018-May-17 22:00N 68°14' E 016°06'3 6.2
2018-May-17 21:30N 68°14' E 016°14'2 3.5
2018-May-17 21:00N 68°14' E 016°10'2 3.8
2018-May-17 20:30N 68°14' E 016°05'4 6.9
2018-May-17 19:59N 68°14' E 016°14'2 3.8
2018-May-17 19:30N 68°14' E 016°09'0 0.4
2018-May-17 18:59N 68°14' E 016°09'2 4.3
2018-May-17 18:30N 68°14' E 016°14'2 3.2
2018-May-17 17:59N 68°14' E 016°10'1 1.9
2018-May-17 17:30N 68°14' E 016°07'2 5.0
2018-May-17 17:00N 68°14' E 016°14'4 7.1
2018-May-17 16:31N 68°14' E 016°05'2 3.7
2018-May-17 16:00N 68°14' E 016°10'2 3.5
2018-May-17 15:30N 68°14' E 016°14'4 7.2
2018-May-17 15:00N 68°14' E 016°05'2 4.0
2018-May-17 14:30N 68°14' E 016°10'2 3.2
2018-May-17 13:59N 68°14' E 016°14'4 7.2
2018-May-17 13:30N 68°14' E 016°05'3 5.5
2018-May-17 13:01N 68°14' E 016°11'1 2.2
2018-May-17 12:30N 68°14' E 016°14'4 7.4
2018-May-17 12:00N 68°14' E 016°05'2 4.2
2018-May-17 11:30N 68°14' E 016°10'2 3.0
2018-May-17 10:59N 68°14' E 016°14'0 0.0
2018-May-17 10:30N 68°14' E 016°14'2 3.4
2018-May-17 09:59N 68°14' E 016°09'1 1.5
2018-May-17 09:30N 68°14' E 016°07'2 4.9
2018-May-17 09:00N 68°14' E 016°14'4 7.2
2018-May-17 08:30N 68°14' E 016°05'3 5.5
2018-May-17 07:59N 68°14' E 016°12'0 0.3
2018-May-17 07:30N 68°14' E 016°12'2 4.7
2018-May-17 07:00N 68°14' E 016°06'3 6.0
2018-May-17 06:29N 68°14' E 016°14'4 7.6
2018-May-17 06:00N 68°14' E 016°05'4 7.1
2018-May-17 05:30N 68°14' E 016°14'2 4.0
2018-May-17 05:00N 68°14' E 016°09'1 1.3
2018-May-17 04:30N 68°14' E 016°07'3 5.4
2018-May-17 04:00N 68°14' E 016°14'4 7.6
2018-May-17 03:31N 68°14' E 016°05'4 6.9
2018-May-17 03:00N 68°14' E 016°14'0 0.0
2018-May-17 02:30N 68°14' E 016°14'4 7.2
2018-May-17 02:00N 68°14' E 016°05'0 0.0
2018-May-17 01:30N 68°14' E 016°05'0 0.0
2018-May-17 01:00N 68°14' E 016°05'0 0.0
2018-May-17 00:29N 68°14' E 016°05'0 0.0
2018-May-17 00:00N 68°14' E 016°05'0 0.0
2018-May-16 23:30N 68°14' E 016°05'4 7.2
2018-May-16 23:01N 68°14' E 016°14'2 3.2
2018-May-16 22:30N 68°14' E 016°10'1 2.3
2018-May-16 22:00N 68°14' E 016°07'3 5.5
2018-May-16 21:30N 68°14' E 016°14'1 2.7
2018-May-16 21:00N 68°14' E 016°11'2 3.3
2018-May-16 20:30N 68°14' E 016°06'3 5.8
2018-May-16 20:00N 68°14' E 016°14'2 3.1
2018-May-16 19:30N 68°14' E 016°10'1 1.2
2018-May-16 19:00N 68°14' E 016°08'2 4.2
2018-May-16 18:30N 68°14' E 016°14'2 3.8
2018-May-16 18:00N 68°14' E 016°09'0 0.1
2018-May-16 17:30N 68°14' E 016°09'2 3.8
2018-May-16 17:00N 68°14' E 016°14'4 7.1
2018-May-16 16:30N 68°14' E 016°05'2 4.3
2018-May-16 15:59N 68°14' E 016°10'2 3.0
2018-May-16 15:30N 68°14' E 016°14'4 7.3
2018-May-16 15:00N 68°14' E 016°05'2 3.9
2018-May-16 14:29N 68°14' E 016°10'2 3.5
2018-May-16 14:00N 68°14' E 016°14'4 7.1
2018-May-16 13:30N 68°14' E 016°05'3 6.3
2018-May-16 13:00N 68°14' E 016°13'1 1.4
2018-May-16 12:31N 68°14' E 016°14'4 7.0
2018-May-16 11:59N 68°14' E 016°05'2 3.9
2018-May-16 11:30N 68°14' E 016°09'2 3.5
2018-May-16 11:01N 68°14' E 016°14'0 0.0
2018-May-16 10:30N 68°14' E 016°14'2 3.4
2018-May-16 10:00N 68°14' E 016°10'1 1.1
2018-May-16 09:29N 68°14' E 016°08'2 4.7
2018-May-16 09:00N 68°14' E 016°14'4 7.0
2018-May-16 08:30N 68°14' E 016°05'3 5.9
2018-May-16 07:59N 68°14' E 016°12'0 0.5
2018-May-16 07:30N 68°14' E 016°12'3 5.2
2018-May-16 07:00N 68°14' E 016°05'3 6.8
2018-May-16 06:31N 68°14' E 016°14'4 6.9
2018-May-16 06:00N 68°14' E 016°05'4 7.2
2018-May-16 05:29N 68°14' E 016°14'2 4.3
2018-May-16 05:00N 68°14' E 016°08'0 0.9
2018-May-16 04:30N 68°14' E 016°07'3 5.2
2018-May-16 04:00N 68°14' E 016°14'4 7.3
2018-May-16 03:30N 68°14' E 016°05'4 7.1
2018-May-16 03:00N 68°14' E 016°14'0 0.0
2018-May-16 02:30N 68°14' E 016°14'4 7.1
2018-May-16 01:59N 68°14' E 016°05'0 0.0
2018-May-16 01:30N 68°14' E 016°05'0 0.0
2018-May-16 01:00N 68°14' E 016°05'0 0.0
2018-May-16 00:30N 68°14' E 016°05'0 0.6
2018-May-16 00:00N 68°14' E 016°05'0 0.6
2018-May-15 23:30N 68°14' E 016°05'4 7.0
2018-May-15 23:00N 68°14' E 016°14'2 3.3
2018-May-15 22:30N 68°14' E 016°10'1 2.9
2018-May-15 22:00N 68°14' E 016°06'3 6.2
2018-May-15 21:30N 68°14' E 016°14'2 3.5
2018-May-15 21:00N 68°14' E 016°09'2 3.8
2018-May-15 20:30N 68°14' E 016°05'4 7.2
2018-May-15 20:00N 68°14' E 016°14'2 3.4
2018-May-15 19:30N 68°14' E 016°09'1 1.4
2018-May-15 19:00N 68°14' E 016°08'2 4.9
2018-May-15 18:30N 68°14' E 016°14'2 3.6
2018-May-15 17:59N 68°14' E 016°09'1 1.1
2018-May-15 17:30N 68°14' E 016°08'2 4.9
2018-May-15 17:00N 68°14' E 016°14'4 7.0
2018-May-15 16:30N 68°14' E 016°05'2 4.4
2018-May-15 15:59N 68°14' E 016°10'1 3.0
2018-May-15 15:30N 68°14' E 016°14'4 7.1
2018-May-15 15:00N 68°14' E 016°05'2 3.5
2018-May-15 14:30N 68°14' E 016°09'2 3.8
2018-May-15 14:00N 68°14' E 016°14'4 7.3
2018-May-15 13:31N 68°14' E 016°05'3 5.2
2018-May-15 13:00N 68°14' E 016°11'1 1.7
2018-May-15 12:29N 68°14' E 016°14'4 7.4
2018-May-15 12:00N 68°14' E 016°05'2 3.6
2018-May-15 11:30N 68°14' E 016°09'2 3.7
2018-May-15 11:00N 68°14' E 016°14'0 0.0
2018-May-15 10:30N 68°14' E 016°14'2 4.0
2018-May-15 10:00N 68°14' E 016°09'1 1.2
2018-May-15 09:30N 68°14' E 016°07'3 5.1
2018-May-15 09:00N 68°14' E 016°14'4 7.0
2018-May-15 08:30N 68°14' E 016°05'3 5.6
2018-May-15 08:00N 68°14' E 016°12'1 1.3
2018-May-15 07:30N 68°14' E 016°10'2 3.5
2018-May-15 06:59N 68°14' E 016°06'3 6.5
2018-May-15 06:29N 68°14' E 016°14'4 7.4
2018-May-15 06:00N 68°14' E 016°05'4 7.4
2018-May-15 05:30N 68°14' E 016°14'2 4.7
2018-May-15 05:00N 68°14' E 016°08'0 0.3
2018-May-15 04:30N 68°14' E 016°08'2 3.6
2018-May-15 04:00N 68°14' E 016°12'3 6.0
2018-May-15 03:29N 68°14' E 016°05'4 7.4
2018-May-15 03:00N 68°14' E 016°14'0 0.0
2018-May-15 02:30N 68°14' E 016°14'4 7.0
2018-May-15 02:00N 68°14' E 016°05'0 0.0
2018-May-15 01:30N 68°14' E 016°05'0 0.0
2018-May-15 00:58N 68°14' E 016°05'0 0.0
2018-May-15 00:30N 68°14' E 016°05'0 0.0
2018-May-15 00:00N 68°14' E 016°05'0 0.0
2018-May-14 23:30N 68°14' E 016°05'4 7.0
2018-May-14 22:59N 68°14' E 016°14'2 3.4
2018-May-14 22:30N 68°14' E 016°10'2 3.5
2018-May-14 22:00N 68°14' E 016°05'3 6.7
2018-May-14 21:30N 68°14' E 016°14'1 2.8
2018-May-14 21:00N 68°14' E 016°10'2 4.5
2018-May-14 20:30N 68°14' E 016°05'4 7.0
2018-May-14 20:00N 68°14' E 016°14'2 3.7
2018-May-14 19:30N 68°14' E 016°09'0 0.6
2018-May-14 18:59N 68°14' E 016°08'2 4.2
2018-May-14 18:29N 68°14' E 016°14'2 4.5
2018-May-14 17:59N 68°14' E 016°08'0 0.3
2018-May-14 17:30N 68°14' E 016°08'2 4.6
2018-May-14 17:00N 68°14' E 016°14'4 7.2
2018-May-14 16:30N 68°14' E 016°05'2 4.0
2018-May-14 16:00N 68°14' E 016°10'2 3.4
2018-May-14 15:31N 68°14' E 016°14'4 6.3
2018-May-14 14:56N 68°14' E 016°05'2 4.5
2018-May-14 14:30N 68°14' E 016°10'  
Track history (hours):
 
Tides and Currents Weather Stations Pressure Air Temp Water Temp Dewpoint Dewpoint Depression Visibility Wind Speed Wind Dir Waves Ship Positions

Melshorn

Last reported at 2018-May-24 13:59 UTC. Time now 2018-May-24 14:08 UTC.
Position N 68°14' E 016°14'.

Length 112 m; draft 3.5 m.

Type: Ship. MMSI: 259649000.

Date/timePositionNaut miles runAvg speedWind from/ knotsBaromVisibWave heightAir tempDewpointWater temp
2018-May-24 13:59N 68°14' E 016°14'4 7.3
2018-May-24 13:30N 68°14' E 016°05'4 0.8
2018-May-24 09:00N 68°14' E 016°14'4 7.4
2018-May-24 08:30N 68°14' E 016°05'3 5.7
2018-May-24 07:59N 68°14' E 016°12'0 0.4
2018-May-24 07:29N 68°14' E 016°11'3 5.3
2018-May-24 06:59N 68°14' E 016°05'3 6.9
2018-May-24 06:30N 68°14' E 016°14'4 7.2
2018-May-24 06:00N 68°14' E 016°05'4 7.3
2018-May-24 05:30N 68°14' E 016°14'2 4.9
2018-May-24 05:00N 68°14' E 016°08'0 0.9
2018-May-24 04:30N 68°14' E 016°07'3 5.6
2018-May-24 03:59N 68°14' E 016°14'4 7.5
2018-May-24 03:30N 68°14' E 016°05'4 7.2
2018-May-24 03:00N 68°14' E 016°14'0 0.0
2018-May-24 02:29N 68°14' E 016°14'4 7.3
2018-May-24 02:00N 68°14' E 016°05'0 0.0
2018-May-24 01:29N 68°14' E 016°05'0 0.0
2018-May-24 01:00N 68°14' E 016°05'0 0.0
2018-May-24 00:30N 68°14' E 016°05'0 0.0
2018-May-24 00:00N 68°14' E 016°05'0 0.0
2018-May-23 23:30N 68°14' E 016°05'4 7.0
2018-May-23 22:59N 68°14' E 016°14'2 3.5
2018-May-23 22:30N 68°14' E 016°09'1 1.8
2018-May-23 21:58N 68°14' E 016°07'3 5.9
2018-May-23 21:30N 68°14' E 016°14'1 3.0
2018-May-23 21:01N 68°14' E 016°10'2 4.4
2018-May-23 20:30N 68°14' E 016°05'4 6.9
2018-May-23 20:00N 68°14' E 016°14'2 3.2
2018-May-23 19:30N 68°14' E 016°10'0 0.5
2018-May-23 19:00N 68°14' E 016°09'2 3.5
2018-May-23 18:29N 68°14' E 016°14'2 4.7
2018-May-23 18:00N 68°14' E 016°08'0 0.1
2018-May-23 17:30N 68°14' E 016°08'2 4.6
2018-May-23 17:00N 68°14' E 016°14'4 7.1
2018-May-23 16:30N 68°14' E 016°05'2 3.8
2018-May-23 16:00N 68°14' E 016°09'2 3.4
2018-May-23 15:29N 68°14' E 016°14'4 6.9
2018-May-23 14:58N 68°14' E 016°05'2 4.0
2018-May-23 14:30N 68°14' E 016°10'2 3.5
2018-May-23 14:00N 68°14' E 016°14'4 7.2
2018-May-23 13:30N 68°14' E 016°05'3 5.8
2018-May-23 13:00N 68°14' E 016°12'1 1.7
2018-May-23 12:30N 68°14' E 016°14'4 7.1
2018-May-23 11:58N 68°14' E 016°05'2 4.4
2018-May-23 11:30N 68°14' E 016°10'2 3.3
2018-May-23 11:00N 68°14' E 016°14'0 0.0
2018-May-23 10:30N 68°14' E 016°14'2 3.1
2018-May-23 10:00N 68°14' E 016°10'1 2.0
2018-May-23 09:30N 68°14' E 016°07'3 4.9
2018-May-23 08:59N 68°14' E 016°14'4 7.6
2018-May-23 08:30N 68°14' E 016°05'3 5.7
2018-May-23 08:01N 68°14' E 016°12'0 0.7
2018-May-23 07:30N 68°15' E 016°13'3 5.7
2018-May-23 07:00N 68°14' E 016°05'3 6.6
2018-May-23 06:30N 68°14' E 016°14'4 7.2
2018-May-23 06:00N 68°14' E 016°05'4 7.4
2018-May-23 05:30N 68°14' E 016°14'2 4.4
2018-May-23 05:00N 68°14' E 016°08'0 0.4
2018-May-23 04:30N 68°14' E 016°08'2 3.1
2018-May-23 04:00N 68°14' E 016°12'3 5.9
2018-May-23 03:30N 68°14' E 016°05'4 7.0
2018-May-23 03:00N 68°14' E 016°14'0 0.0
2018-May-23 02:30N 68°14' E 016°14'4 7.1
2018-May-23 02:00N 68°14' E 016°05'0 0.0
2018-May-23 01:30N 68°14' E 016°05'0 0.0
2018-May-23 01:00N 68°14' E 016°05'0 0.0
2018-May-23 00:31N 68°14' E 016°05'0 0.0
2018-May-23 00:00N 68°14' E 016°05'0 0.0
2018-May-22 23:30N 68°14' E 016°05'4 6.7
2018-May-22 22:59N 68°14' E 016°14'1 3.0
2018-May-22 22:30N 68°14' E 016°10'2 3.1
2018-May-22 22:00N 68°14' E 016°06'3 5.8
2018-May-22 21:30N 68°14' E 016°14'1 3.0
2018-May-22 21:00N 68°14' E 016°10'2 4.4
2018-May-22 20:30N 68°14' E 016°05'4 7.1
2018-May-22 20:00N 68°14' E 016°14'2 3.2
2018-May-22 19:30N 68°14' E 016°10'0 0.8
2018-May-22 18:59N 68°14' E 016°09'2 4.2
2018-May-22 18:30N 68°14' E 016°14'2 4.0
2018-May-22 18:00N 68°14' E 016°09'0 0.7
2018-May-22 17:30N 68°14' E 016°08'2 4.7
2018-May-22 17:01N 68°14' E 016°14'4 7.0
2018-May-22 16:30N 68°14' E 016°05'2 4.1
2018-May-22 16:00N 68°14' E 016°10'2 3.2
2018-May-22 15:30N 68°14' E 016°14'4 7.2
2018-May-22 15:00N 68°14' E 016°05'2 4.0
2018-May-22 14:30N 68°14' E 016°10'2 3.3
2018-May-22 13:59N 68°14' E 016°14'4 7.5
2018-May-22 13:30N 68°14' E 016°05'3 5.8
2018-May-22 13:00N 68°14' E 016°12'0 0.8
2018-May-22 12:30N 68°15' E 016°13'3 6.8
2018-May-22 12:00N 68°14' E 016°05'2 3.6
2018-May-22 11:29N 68°14' E 016°09'2 3.5
2018-May-22 10:59N 68°14' E 016°14'0 0.0
2018-May-22 10:29N 68°14' E 016°14'3 5.7
2018-May-22 10:00N 68°14' E 016°07'0 1.0
2018-May-22 09:30N 68°14' E 016°08'2 4.9
2018-May-22 09:00N 68°14' E 016°14'4 7.5
2018-May-22 08:30N 68°14' E 016°05'3 5.5
2018-May-22 08:00N 68°14' E 016°12'1 1.0
2018-May-22 07:30N 68°15' E 016°13'3 5.9
2018-May-22 07:00N 68°14' E 016°05'3 6.7
2018-May-22 06:30N 68°14' E 016°14'4 7.0
2018-May-22 06:00N 68°14' E 016°05'4 7.3
2018-May-22 05:30N 68°14' E 016°14'2 4.4
2018-May-22 05:00N 68°14' E 016°08'0 0.9
2018-May-22 04:30N 68°14' E 016°07'3 5.2
2018-May-22 04:00N 68°14' E 016°14'4 7.2
2018-May-22 03:29N 68°14' E 016°05'4 7.4
2018-May-22 03:00N 68°14' E 016°14'0 0.0
2018-May-22 02:31N 68°14' E 016°14'4 6.9
2018-May-22 02:00N 68°14' E 016°05'0 0.0
2018-May-22 01:30N 68°14' E 016°05'0 0.0
2018-May-22 01:00N 68°14' E 016°05'0 0.0
2018-May-22 00:31N 68°14' E 016°05'0 0.0
2018-May-22 00:00N 68°14' E 016°05'0 0.4
2018-May-21 23:30N 68°14' E 016°05'3 6.8
2018-May-21 23:00N 68°14' E 016°14'2 3.3
2018-May-21 22:30N 68°14' E 016°10'1 2.2
2018-May-21 22:00N 68°14' E 016°07'3 5.4
2018-May-21 21:30N 68°14' E 016°14'2 3.5
2018-May-21 21:00N 68°14' E 016°10'2 3.8
2018-May-21 20:30N 68°14' E 016°05'4 7.1
2018-May-21 20:00N 68°14' E 016°14'3 5.2
2018-May-21 19:30N 68°14' E 016°07'0 0.7
2018-May-21 19:00N 68°14' E 016°08'2 4.3
2018-May-21 18:30N 68°14' E 016°14'2 4.5
2018-May-21 18:00N 68°14' E 016°08'0 0.7
2018-May-21 17:30N 68°14' E 016°09'2 3.9
2018-May-21 16:59N 68°14' E 016°14'4 7.6
2018-May-21 16:31N 68°14' E 016°05'2 3.4
2018-May-21 16:00N 68°14' E 016°09'2 3.9
2018-May-21 15:30N 68°14' E 016°14'4 6.7
2018-May-21 14:58N 68°14' E 016°05'2 4.0
2018-May-21 14:31N 68°14' E 016°09'2 3.6
2018-May-21 14:00N 68°14' E 016°14'4 7.2
2018-May-21 13:30N 68°14' E 016°05'3 5.2
2018-May-21 13:01N 68°14' E 016°11'1 2.3
2018-May-21 12:30N 68°14' E 016°14'4 7.2
2018-May-21 12:00N 68°14' E 016°05'3 6.3
2018-May-21 11:30N 68°14' E 016°13'2 3.9
2018-May-21 11:00N 68°14' E 016°08'2 3.4
2018-May-21 10:30N 68°14' E 016°12'1 2.6
2018-May-21 10:00N 68°14' E 016°09'1 1.0
2018-May-21 09:30N 68°14' E 016°07'2 5.1
2018-May-21 09:01N 68°14' E 016°14'4 6.7
2018-May-21 08:29N 68°14' E 016°05'3 5.8
2018-May-21 07:59N 68°14' E 016°12'0 0.4
2018-May-21 07:28N 68°14' E 016°12'2 4.5
2018-May-21 06:59N 68°14' E 016°06'3 6.5
2018-May-21 06:30N 68°14' E 016°14'4 7.0
2018-May-21 06:00N 68°14' E 016°05'4 7.1
2018-May-21 05:30N 68°14' E 016°14'2 4.1
2018-May-21 05:00N 68°14' E 016°08'0 0.5
2018-May-21 04:29N 68°14' E 016°09'2 3.2
2018-May-21 03:59N 68°14' E 016°13'3 6.7
2018-May-21 03:30N 68°14' E 016°05'4 7.1
2018-May-21 03:00N 68°14' E 016°14'0 0.0
2018-May-21 02:30N 68°14' E 016°14'4 6.9
2018-May-21 01:59N 68°14' E 016°05'0 0.0
2018-May-21 01:30N 68°14' E 016°05'0 0.0
2018-May-21 01:00N 68°14' E 016°05'0 0.0
2018-May-21 00:30N 68°14' E 016°05'0 0.0
2018-May-21 00:00N 68°14' E 016°05'0 0.0
2018-May-20 23:29N 68°14' E 016°05'4 7.5
2018-May-20 23:00N 68°14' E 016°14'2 3.1
2018-May-20 22:30N 68°14' E 016°10'2 3.2
2018-May-20 22:00N 68°14' E 016°06'3 6.1
2018-May-20 21:30N 68°14' E 016°14'1 2.8
2018-May-20 21:00N 68°14' E 016°11'2 4.7
2018-May-20 20:30N 68°14' E 016°05'4 7.1
2018-May-20 20:00N 68°14' E 016°14'2 3.4
2018-May-20 19:30N 68°14' E 016°10'1 1.3
2018-May-20 19:00N 68°14' E 016°08'2 4.6
2018-May-20 18:30N 68°14' E 016°14'1 2.8
2018-May-20 18:00N 68°14' E 016°11'1 2.1
2018-May-20 17:30N 68°14' E 016°08'2 4.8
2018-May-20 17:00N 68°14' E 016°14'4 7.0
2018-May-20 16:30N 68°14' E 016°05'2 3.6
2018-May-20 16:00N 68°14' E 016°09'2 3.8
2018-May-20 15:30N 68°14' E 016°14'4 6.9
2018-May-20 14:59N 68°14' E 016°05'2 3.6
2018-May-20 14:30N 68°14' E 016°09'2 3.7
2018-May-20 14:00N 68°14' E 016°14'4 7.2
2018-May-20 13:30N 68°14' E 016°05'3 5.4
2018-May-20 12:59N 68°14' E 016°12'1 1.7
2018-May-20 12:29N 68°14' E 016°14'4 7.2
2018-May-20 12:00N 68°14' E 016°05'2 3.9
2018-May-20 11:30N 68°14' E 016°10'2 3.4
2018-May-20 11:00N 68°14' E 016°14'0 0.0
2018-May-20 10:30N 68°14' E 016°14'2 3.8
2018-May-20 10:01N 68°14' E 016°09'1 1.1
2018-May-20 09:30N 68°14' E 016°08'2 4.8
2018-May-20 09:00N 68°14' E 016°14'4 7.1
2018-May-20 08:30N 68°14' E 016°05'3 5.4
2018-May-20 08:00N 68°14' E 016°12'0 0.6
2018-May-20 07:30N 68°15' E 016°12'3 5.3
2018-May-20 07:00N 68°14' E 016°05'3 6.8
2018-May-20 06:31N 68°14' E 016°14'4 7.0
2018-May-20 06:00N 68°14' E 016°05'3 7.0
2018-May-20 05:30N 68°14' E 016°14'2 4.2
2018-May-20 04:59N 68°14' E 016°08'0 0.4
2018-May-20 04:30N 68°14' E 016°08'2 4.3
2018-May-20 04:00N 68°14' E 016°14'4 7.5
2018-May-20 03:30N 68°14' E 016°05'4 6.8
2018-May-20 02:59N 68°14' E 016°14'0 0.0
2018-May-20 02:30N 68°14' E 016°14'4 7.0
2018-May-20 02:00N 68°14' E 016°05'0 0.0
2018-May-20 01:30N 68°14' E 016°05'0 0.0
2018-May-20 01:00N 68°14' E 016°05'0 0.0
2018-May-20 00:30N 68°14' E 016°05'0 0.0
2018-May-20 00:00N 68°14' E 016°05'0 0.0
2018-May-19 23:30N 68°14' E 016°05'4 7.2
2018-May-19 23:00N 68°14' E 016°14'2 3.2
2018-May-19 22:30N 68°14' E 016°10'2 3.5
2018-May-19 22:00N 68°14' E 016°05'3 6.6
2018-May-19 21:30N 68°14' E 016°14'1 2.6
2018-May-19 21:00N 68°14' E 016°11'2 4.8
2018-May-19 20:30N 68°14' E 016°05'4 7.0
2018-May-19 20:00N 68°14' E 016°14'1 2.8
2018-May-19 19:30N 68°14' E 016°10'1 2.3
2018-May-19 18:59N 68°14' E 016°07'3 5.1
2018-May-19 18:30N 68°14' E 016°14'2 4.5
2018-May-19 18:00N 68°14' E 016°08'0 0.3
2018-May-19 17:30N 68°14' E 016°08'2 4.7
2018-May-19 17:00N 68°14' E 016°14'4 6.9
2018-May-19 16:29N 68°14' E 016°05'2 3.7
2018-May-19 16:01N 68°14' E 016°09'2 3.7
2018-May-19 15:30N 68°14' E 016°14'4 7.1
2018-May-19 15:00N 68°14' E 016°05'2 4.5
2018-May-19 14:30N 68°14' E 016°10'1 2.8
2018-May-19 14:00N 68°14' E 016°14'4 7.0
2018-May-19 13:30N 68°14' E 016°05'3 5.5
2018-May-19 13:00N 68°14' E 016°12'1 2.1
2018-May-19 12:30N 68°14' E 016°14'4 7.3
2018-May-19 12:00N 68°14' E 016°05'2 3.7
2018-May-19 11:30N 68°14' E 016°09'2 3.6
2018-May-19 11:00N 68°14' E 016°14'0 0.0
2018-May-19 10:30N 68°14' E 016°14'2 3.6
2018-May-19 10:00N 68°14' E 016°09'1 1.2
2018-May-19 09:30N 68°14' E 016°08'2 4.7
2018-May-19 09:00N 68°14' E 016°14'4 7.3
2018-May-19 08:30N 68°14' E 016°05'3 5.4
2018-May-19 08:00N 68°14' E 016°12'0 0.6
2018-May-19 07:30N 68°15' E 016°12'3 5.2
2018-May-19 07:00N 68°14' E 016°06'3 6.4
2018-May-19 06:30N 68°14' E 016°14'4 7.2
2018-May-19 06:00N 68°14' E 016°05'3 6.9
2018-May-19 05:30N 68°14' E 016°14'2 4.0
2018-May-19 05:00N 68°14' E 016°08'0 0.4
2018-May-19 04:30N 68°14' E 016°08'2 4.3
2018-May-19 04:00N 68°14' E 016°13'3 6.7
2018-May-19 03:30N 68°14' E 016°05'4 7.1
2018-May-19 03:00N 68°14' E 016°14'0 0.0
2018-May-19 02:30N 68°14' E 016°14'4 7.3
2018-May-19 02:00N 68°14' E 016°05'0 0.0
2018-May-19 01:30N 68°14' E 016°05'0 0.0
2018-May-19 00:59N 68°14' E 016°05'0 0.0
2018-May-19 00:30N 68°14' E 016°05'0 0.0
2018-May-19 00:00N 68°14' E 016°05'0 0.0
2018-May-18 23:30N 68°14' E 016°05'4 7.0
2018-May-18 22:59N 68°14' E 016°14'2 3.3
2018-May-18 22:30N 68°14' E 016°10'2 3.8
2018-May-18 22:01N 68°14' E 016°05'3 6.8
2018-May-18 21:31N 68°14' E 016°14'1 2.6
2018-May-18 21:00N 68°14' E 016°11'2 4.5
2018-May-18 20:30N 68°14' E 016°05'4 7.1
2018-May-18 20:00N 68°14' E 016°14'1 2.9
2018-May-18 19:31N 68°14' E 016°10'1 1.8
2018-May-18 19:00N 68°14' E 016°08'2 4.6
2018-May-18 18:30N 68°14' E 016°14'2 3.0
2018-May-18 18:00N 68°14' E 016°10'1 1.8
2018-May-18 17:30N 68°14' E 016°08'2 4.8
2018-May-18 17:00N 68°14' E 016°14'4 7.0
2018-May-18 16:30N 68°14' E 016°05'2 3.9
2018-May-18 16:00N 68°14' E 016°10'2 3.5
2018-May-18 15:30N 68°14' E 016°14'4 7.2
2018-May-18 15:01N 68°14' E 016°05'2 4.0
2018-May-18 14:30N 68°14' E 016°10'2 3.3
2018-May-18 14:01N 68°14' E 016°14'4 6.9
2018-May-18 13:30N 68°14' E 016°05'3 5.6
2018-May-18 13:00N 68°14' E 016°12'1 2.1
2018-May-18 12:30N 68°14' E 016°14'4 7.3
2018-May-18 12:00N 68°14' E 016°05'2 3.6
2018-May-18 11:30N 68°14' E 016°09'2 3.6
2018-May-18 10:59N 68°14' E 016°14'0 0.0
2018-May-18 10:30N 68°14' E 016°14'2 4.1
2018-May-18 10:00N 68°14' E 016°09'1 1.2
2018-May-18 09:30N 68°14' E 016°07'3 5.1
2018-May-18 09:00N 68°14' E 016°14'4 7.2
2018-May-18 08:30N 68°14' E 016°05'3 5.6
2018-May-18 07:59N 68°14' E 016°12'0 0.4
2018-May-18 07:30N 68°14' E 016°11'2 5.0
2018-May-18 07:00N 68°14' E 016°05'3 6.5
2018-May-18 06:29N 68°14' E 016°14'4 7.1
2018-May-18 05:59N 68°14' E 016°05'4 7.3
2018-May-18 05:29N 68°14' E 016°14'2 4.0
2018-May-18 05:01N 68°14' E 016°09'0 0.4
2018-May-18 04:30N 68°14' E 016°08'2 4.5
2018-May-18 04:00N 68°14' E 016°14'4 7.4
2018-May-18 03:30N 68°14' E 016°05'4 6.7
2018-May-18 02:58N 68°14' E 016°14'0 0.0
2018-May-18 02:30N 68°14' E 016°14'4 7.2
2018-May-18 02:00N 68°14' E 016°05'0 0.0
2018-May-18 01:30N 68°14' E 016°05'0 0.0
2018-May-18 01:00N 68°14' E 016°05'0 0.0
2018-May-18 00:31N 68°14' E 016°05'0 0.0
2018-May-18 00:00N 68°14' E 016°05'0 0.0
2018-May-17 23:29N 68°14' E 016°05'4 7.3
2018-May-17 23:00N 68°14' E 016°14'2 3.6
2018-May-17 22:28N 68°14' E 016°09'1 2.6
2018-May-17 22:00N 68°14' E 016°06'3 6.2
2018-May-17 21:30N 68°14' E 016°14'2 3.5
2018-May-17 21:00N 68°14' E 016°10'2 3.8
2018-May-17 20:30N 68°14' E 016°05'4 6.9
2018-May-17 19:59N 68°14' E 016°14'2 3.8
2018-May-17 19:30N 68°14' E 016°09'0 0.4
2018-May-17 18:59N 68°14' E 016°09'2 4.3
2018-May-17 18:30N 68°14' E 016°14'2 3.2
2018-May-17 17:59N 68°14' E 016°10'1 1.9
2018-May-17 17:30N 68°14' E 016°07'2 5.0
2018-May-17 17:00N 68°14' E 016°14'4 7.1
2018-May-17 16:31N 68°14' E 016°05'2 3.7
2018-May-17 16:00N 68°14' E 016°10'2 3.5
2018-May-17 15:30N 68°14' E 016°14'4 7.2
2018-May-17 15:00N 68°14' E 016°05'2 4.0
2018-May-17 14:30N 68°14' E 016°10'2 3.2
2018-May-17 13:59N 68°14' E 016°14'4 7.2
2018-May-17 13:30N 68°14' E 016°05'3 5.5
2018-May-17 13:01N 68°14' E 016°11'1 2.2
2018-May-17 12:30N 68°14' E 016°14'4 7.4
2018-May-17 12:00N 68°14' E 016°05'2 4.2
2018-May-17 11:30N 68°14' E 016°10'2 3.0
2018-May-17 10:59N 68°14' E 016°14'0 0.0
2018-May-17 10:30N 68°14' E 016°14'2 3.4
2018-May-17 09:59N 68°14' E 016°09'1 1.5
2018-May-17 09:30N 68°14' E 016°07'2 4.9
2018-May-17 09:00N 68°14' E 016°14'4 7.2
2018-May-17 08:30N 68°14' E 016°05'3 5.5
2018-May-17 07:59N 68°14' E 016°12'0 0.3
2018-May-17 07:30N 68°14' E 016°12'2 4.7
2018-May-17 07:00N 68°14' E 016°06'3 6.0
2018-May-17 06:29N 68°14' E 016°14'4 7.6
2018-May-17 06:00N 68°14' E 016°05'4 7.1
2018-May-17 05:30N 68°14' E 016°14'2 4.0
2018-May-17 05:00N 68°14' E 016°09'1 1.3
2018-May-17 04:30N 68°14' E 016°07'3 5.4
2018-May-17 04:00N 68°14' E 016°14'4 7.6
2018-May-17 03:31N 68°14' E 016°05'4 6.9
2018-May-17 03:00N 68°14' E 016°14'0 0.0
2018-May-17 02:30N 68°14' E 016°14'4 7.2
2018-May-17 02:00N 68°14' E 016°05'0 0.0
2018-May-17 01:30N 68°14' E 016°05'0 0.0
2018-May-17 01:00N 68°14' E 016°05'0 0.0
2018-May-17 00:29N 68°14' E 016°05'0 0.0
2018-May-17 00:00N 68°14' E 016°05'0 0.0
2018-May-16 23:30N 68°14' E 016°05'4 7.2
2018-May-16 23:01N 68°14' E 016°14'2 3.2
2018-May-16 22:30N 68°14' E 016°10'1 2.3
2018-May-16 22:00N 68°14' E 016°07'3 5.5
2018-May-16 21:30N 68°14' E 016°14'1 2.7
2018-May-16 21:00N 68°14' E 016°11'2 3.3
2018-May-16 20:30N 68°14' E 016°06'3 5.8
2018-May-16 20:00N 68°14' E 016°14'2 3.1
2018-May-16 19:30N 68°14' E 016°10'1 1.2
2018-May-16 19:00N 68°14' E 016°08'2 4.2
2018-May-16 18:30N 68°14' E 016°14'2 3.8
2018-May-16 18:00N 68°14' E 016°09'0 0.1
2018-May-16 17:30N 68°14' E 016°09'2 3.8
2018-May-16 17:00N 68°14' E 016°14'4 7.1
2018-May-16 16:30N 68°14' E 016°05'2 4.3
2018-May-16 15:59N 68°14' E 016°10'2 3.0
2018-May-16 15:30N 68°14' E 016°14'4 7.3
2018-May-16 15:00N 68°14' E 016°05'2 3.9
2018-May-16 14:29N 68°14' E 016°10'2 3.5
2018-May-16 14:00N 68°14' E 016°14'4 7.1
2018-May-16 13:30N 68°14' E 016°05'3 6.3
2018-May-16 13:00N 68°14' E 016°13'1 1.4
2018-May-16 12:31N 68°14' E 016°14'4 7.0
2018-May-16 11:59N 68°14' E 016°05'2 3.9
2018-May-16 11:30N 68°14' E 016°09'2 3.5
2018-May-16 11:01N 68°14' E 016°14'0 0.0
2018-May-16 10:30N 68°14' E 016°14'2 3.4
2018-May-16 10:00N 68°14' E 016°10'1 1.1
2018-May-16 09:29N 68°14' E 016°08'2 4.7
2018-May-16 09:00N 68°14' E 016°14'4 7.0
2018-May-16 08:30N 68°14' E 016°05'3 5.9
2018-May-16 07:59N 68°14' E 016°12'0 0.5
2018-May-16 07:30N 68°14' E 016°12'3 5.2
2018-May-16 07:00N 68°14' E 016°05'3 6.8
2018-May-16 06:31N 68°14' E 016°14'4 6.9
2018-May-16 06:00N 68°14' E 016°05'4 7.2
2018-May-16 05:29N 68°14' E 016°14'2 4.3
2018-May-16 05:00N 68°14' E 016°08'0 0.9
2018-May-16 04:30N 68°14' E 016°07'3 5.2
2018-May-16 04:00N 68°14' E 016°14'4 7.3
2018-May-16 03:30N 68°14' E 016°05'4 7.1
2018-May-16 03:00N 68°14' E 016°14'0 0.0
2018-May-16 02:30N 68°14' E 016°14'4 7.1
2018-May-16 01:59N 68°14' E 016°05'0 0.0
2018-May-16 01:30N 68°14' E 016°05'0 0.0
2018-May-16 01:00N 68°14' E 016°05'0 0.0
2018-May-16 00:30N 68°14' E 016°05'0 0.6
2018-May-16 00:00N 68°14' E 016°05'0 0.6
2018-May-15 23:30N 68°14' E 016°05'4 7.0
2018-May-15 23:00N 68°14' E 016°14'2 3.3
2018-May-15 22:30N 68°14' E 016°10'1 2.9
2018-May-15 22:00N 68°14' E 016°06'3 6.2
2018-May-15 21:30N 68°14' E 016°14'2 3.5
2018-May-15 21:00N 68°14' E 016°09'2 3.8
2018-May-15 20:30N 68°14' E 016°05'4 7.2
2018-May-15 20:00N 68°14' E 016°14'2 3.4
2018-May-15 19:30N 68°14' E 016°09'1 1.4
2018-May-15 19:00N 68°14' E 016°08'2 4.9
2018-May-15 18:30N 68°14' E 016°14'2 3.6
2018-May-15 17:59N 68°14' E 016°09'1 1.1
2018-May-15 17:30N 68°14' E 016°08'2 4.9
2018-May-15 17:00N 68°14' E 016°14'4 7.0
2018-May-15 16:30N 68°14' E 016°05'2 4.4
2018-May-15 15:59N 68°14' E 016°10'1 3.0
2018-May-15 15:30N 68°14' E 016°14'4 7.1
2018-May-15 15:00N 68°14' E 016°05'2 3.5
2018-May-15 14:30N 68°14' E 016°09'2 3.8
2018-May-15 14:00N 68°14' E 016°14'4 7.3
2018-May-15 13:31N 68°14' E 016°05'3 5.2
2018-May-15 13:00N 68°14' E 016°11'1 1.7
2018-May-15 12:29N 68°14' E 016°14'4 7.4
2018-May-15 12:00N 68°14' E 016°05'2 3.6
2018-May-15 11:30N 68°14' E 016°09'2 3.7
2018-May-15 11:00N 68°14' E 016°14'0 0.0
2018-May-15 10:30N 68°14' E 016°14'2 4.0
2018-May-15 10:00N 68°14' E 016°09'1 1.2
2018-May-15 09:30N 68°14' E 016°07'3 5.1
2018-May-15 09:00N 68°14' E 016°14'4 7.0
2018-May-15 08:30N 68°14' E 016°05'3 5.6
2018-May-15 08:00N 68°14' E 016°12'1 1.3
2018-May-15 07:30N 68°14' E 016°10'2 3.5
2018-May-15 06:59N 68°14' E 016°06'3 6.5
2018-May-15 06:29N 68°14' E 016°14'4 7.4
2018-May-15 06:00N 68°14' E 016°05'4 7.4
2018-May-15 05:30N 68°14' E 016°14'2 4.7
2018-May-15 05:00N 68°14' E 016°08'0 0.3
2018-May-15 04:30N 68°14' E 016°08'2 3.6
2018-May-15 04:00N 68°14' E 016°12'3 6.0
2018-May-15 03:29N 68°14' E 016°05'4 7.4
2018-May-15 03:00N 68°14' E 016°14'0 0.0
2018-May-15 02:30N 68°14' E 016°14'4 7.0
2018-May-15 02:00N 68°14' E 016°05'0 0.0
2018-May-15 01:30N 68°14' E 016°05'0 0.0
2018-May-15 00:58N 68°14' E 016°05'0 0.0
2018-May-15 00:30N 68°14' E 016°05'0 0.0
2018-May-15 00:00N 68°14' E 016°05'0 0.0
2018-May-14 23:30N 68°14' E 016°05'4 7.0
2018-May-14 22:59N 68°14' E 016°14'2 3.4
2018-May-14 22:30N 68°14' E 016°10'2 3.5
2018-May-14 22:00N 68°14' E 016°05'3 6.7
2018-May-14 21:30N 68°14' E 016°14'1 2.8
2018-May-14 21:00N 68°14' E 016°10'2 4.5
2018-May-14 20:30N 68°14' E 016°05'4 7.0
2018-May-14 20:00N 68°14' E 016°14'2 3.7
2018-May-14 19:30N 68°14' E 016°09'0 0.6
2018-May-14 18:59N 68°14' E 016°08'2 4.2
2018-May-14 18:29N 68°14' E 016°14'2 4.5
2018-May-14 17:59N 68°14' E 016°08'0 0.3
2018-May-14 17:30N 68°14' E 016°08'2 4.6
2018-May-14 17:00N 68°14' E 016°14'4 7.2
2018-May-14 16:30N 68°14' E 016°05'2 4.0
2018-May-14 16:00N 68°14' E 016°10'2 3.4
2018-May-14 15:31N 68°14' E 016°14'4 6.3
2018-May-14 14:56N 68°14' E 016°05'2 4.5
2018-May-14 14:30N 68°14' E 016°10'  

Dump ship's entire track history